sensor_id;sensor_type;location;lat;lon;timestamp;P1;durP1;ratioP1;P2;durP2;ratioP2
31770;SDS011;18343;50.152;8.182;2023-04-25T00:02:18;10.30;;;7.78;;
31770;SDS011;18343;50.152;8.182;2023-04-25T00:05:13;13.55;;;8.50;;
31770;SDS011;18343;50.152;8.182;2023-04-25T00:07:59;13.90;;;8.70;;
31770;SDS011;18343;50.152;8.182;2023-04-25T00:10:52;11.68;;;8.98;;
31770;SDS011;18343;50.152;8.182;2023-04-25T00:13:42;14.18;;;9.20;;
31770;SDS011;18343;50.152;8.182;2023-04-25T00:16:42;12.93;;;9.75;;
31770;SDS011;18343;50.152;8.182;2023-04-25T00:19:38;10.25;;;9.05;;
31770;SDS011;18343;50.152;8.182;2023-04-25T00:25:29;12.52;;;8.45;;
31770;SDS011;18343;50.152;8.182;2023-04-25T00:28:30;11.20;;;8.48;;
31770;SDS011;18343;50.152;8.182;2023-04-25T00:31:30;11.13;;;8.10;;
31770;SDS011;18343;50.152;8.182;2023-04-25T00:34:19;12.60;;;8.50;;
31770;SDS011;18343;50.152;8.182;2023-04-25T00:37:09;10.52;;;8.25;;
31770;SDS011;18343;50.152;8.182;2023-04-25T00:40:06;12.70;;;9.32;;
31770;SDS011;18343;50.152;8.182;2023-04-25T00:42:55;13.68;;;8.68;;
31770;SDS011;18343;50.152;8.182;2023-04-25T00:45:43;14.63;;;10.02;;
31770;SDS011;18343;50.152;8.182;2023-04-25T00:48:30;12.98;;;9.82;;
31770;SDS011;18343;50.152;8.182;2023-04-25T00:51:21;14.35;;;9.80;;
31770;SDS011;18343;50.152;8.182;2023-04-25T00:54:17;14.07;;;9.23;;
31770;SDS011;18343;50.152;8.182;2023-04-25T00:57:08;11.80;;;8.73;;
31770;SDS011;18343;50.152;8.182;2023-04-25T01:00:11;12.73;;;10.13;;
31770;SDS011;18343;50.152;8.182;2023-04-25T01:03:00;12.38;;;9.55;;
31770;SDS011;18343;50.152;8.182;2023-04-25T01:05:49;14.88;;;8.63;;
31770;SDS011;18343;50.152;8.182;2023-04-25T01:08:35;13.45;;;9.35;;
31770;SDS011;18343;50.152;8.182;2023-04-25T01:11:24;19.15;;;9.50;;
31770;SDS011;18343;50.152;8.182;2023-04-25T01:14:14;16.67;;;9.80;;
31770;SDS011;18343;50.152;8.182;2023-04-25T01:17:02;16.67;;;10.10;;
31770;SDS011;18343;50.152;8.182;2023-04-25T01:19:53;15.35;;;10.38;;
31770;SDS011;18343;50.152;8.182;2023-04-25T01:22:40;16.48;;;10.07;;
31770;SDS011;18343;50.152;8.182;2023-04-25T01:25:34;15.05;;;10.60;;
31770;SDS011;18343;50.152;8.182;2023-04-25T01:28:30;14.13;;;10.60;;
31770;SDS011;18343;50.152;8.182;2023-04-25T01:31:22;17.30;;;9.85;;
31770;SDS011;18343;50.152;8.182;2023-04-25T01:34:10;16.02;;;10.95;;
31770;SDS011;18343;50.152;8.182;2023-04-25T01:37:06;15.05;;;9.77;;
31770;SDS011;18343;50.152;8.182;2023-04-25T01:39:55;20.25;;;10.70;;
31770;SDS011;18343;50.152;8.182;2023-04-25T01:42:56;16.73;;;10.07;;
31770;SDS011;18343;50.152;8.182;2023-04-25T01:45:46;18.75;;;10.90;;
31770;SDS011;18343;50.152;8.182;2023-04-25T01:48:33;16.75;;;11.32;;
31770;SDS011;18343;50.152;8.182;2023-04-25T01:51:23;19.13;;;11.30;;
31770;SDS011;18343;50.152;8.182;2023-04-25T01:54:11;17.88;;;11.93;;
31770;SDS011;18343;50.152;8.182;2023-04-25T01:57:09;21.27;;;11.13;;
31770;SDS011;18343;50.152;8.182;2023-04-25T01:59:58;18.73;;;12.00;;
31770;SDS011;18343;50.152;8.182;2023-04-25T02:02:52;17.88;;;10.10;;
31770;SDS011;18343;50.152;8.182;2023-04-25T02:05:48;18.67;;;10.38;;
31770;SDS011;18343;50.152;8.182;2023-04-25T02:08:33;21.13;;;11.32;;
31770;SDS011;18343;50.152;8.182;2023-04-25T02:11:20;17.80;;;10.13;;
31770;SDS011;18343;50.152;8.182;2023-04-25T02:14:08;22.70;;;10.60;;
31770;SDS011;18343;50.152;8.182;2023-04-25T02:16:55;26.48;;;11.82;;
31770;SDS011;18343;50.152;8.182;2023-04-25T02:19:40;18.00;;;10.88;;
31770;SDS011;18343;50.152;8.182;2023-04-25T02:22:30;20.55;;;11.00;;
31770;SDS011;18343;50.152;8.182;2023-04-25T02:25:20;15.60;;;9.98;;
31770;SDS011;18343;50.152;8.182;2023-04-25T02:28:16;21.40;;;11.02;;
31770;SDS011;18343;50.152;8.182;2023-04-25T02:31:05;20.10;;;11.05;;
31770;SDS011;18343;50.152;8.182;2023-04-25T02:33:51;19.23;;;11.98;;
31770;SDS011;18343;50.152;8.182;2023-04-25T02:36:41;19.65;;;11.73;;
31770;SDS011;18343;50.152;8.182;2023-04-25T02:39:31;18.67;;;10.80;;
31770;SDS011;18343;50.152;8.182;2023-04-25T02:42:22;25.85;;;11.35;;
31770;SDS011;18343;50.152;8.182;2023-04-25T02:45:17;17.45;;;11.48;;
31770;SDS011;18343;50.152;8.182;2023-04-25T02:48:04;20.77;;;11.63;;
31770;SDS011;18343;50.152;8.182;2023-04-25T02:50:51;22.73;;;10.70;;
31770;SDS011;18343;50.152;8.182;2023-04-25T02:53:36;20.95;;;11.82;;
31770;SDS011;18343;50.152;8.182;2023-04-25T02:56:24;25.67;;;12.20;;
31770;SDS011;18343;50.152;8.182;2023-04-25T02:59:11;22.52;;;12.20;;
31770;SDS011;18343;50.152;8.182;2023-04-25T03:01:56;19.33;;;12.18;;
31770;SDS011;18343;50.152;8.182;2023-04-25T03:04:55;26.07;;;12.90;;
31770;SDS011;18343;50.152;8.182;2023-04-25T03:07:40;22.83;;;11.85;;
31770;SDS011;18343;50.152;8.182;2023-04-25T03:10:33;18.38;;;11.15;;
31770;SDS011;18343;50.152;8.182;2023-04-25T03:13:20;22.90;;;12.95;;
31770;SDS011;18343;50.152;8.182;2023-04-25T03:16:13;21.83;;;12.10;;
31770;SDS011;18343;50.152;8.182;2023-04-25T03:19:00;24.90;;;12.05;;
31770;SDS011;18343;50.152;8.182;2023-04-25T03:21:51;24.67;;;11.95;;
31770;SDS011;18343;50.152;8.182;2023-04-25T03:24:42;26.17;;;12.13;;
31770;SDS011;18343;50.152;8.182;2023-04-25T03:27:32;25.55;;;12.55;;
31770;SDS011;18343;50.152;8.182;2023-04-25T03:30:17;20.73;;;11.48;;
31770;SDS011;18343;50.152;8.182;2023-04-25T03:33:04;24.40;;;11.93;;
31770;SDS011;18343;50.152;8.182;2023-04-25T03:36:05;24.55;;;11.32;;
31770;SDS011;18343;50.152;8.182;2023-04-25T03:38:56;18.35;;;10.18;;
31770;SDS011;18343;50.152;8.182;2023-04-25T03:41:43;23.00;;;10.93;;
31770;SDS011;18343;50.152;8.182;2023-04-25T03:44:31;21.90;;;11.35;;
31770;SDS011;18343;50.152;8.182;2023-04-25T03:47:22;26.10;;;12.18;;
31770;SDS011;18343;50.152;8.182;2023-04-25T03:50:10;20.42;;;10.52;;
31770;SDS011;18343;50.152;8.182;2023-04-25T03:52:58;24.88;;;9.75;;
31770;SDS011;18343;50.152;8.182;2023-04-25T03:55:47;19.52;;;10.07;;
31770;SDS011;18343;50.152;8.182;2023-04-25T03:58:40;24.35;;;10.40;;
31770;SDS011;18343;50.152;8.182;2023-04-25T04:01:33;14.65;;;7.95;;
31770;SDS011;18343;50.152;8.182;2023-04-25T04:04:21;22.00;;;9.63;;
31770;SDS011;18343;50.152;8.182;2023-04-25T04:07:28;21.90;;;8.60;;
31770;SDS011;18343;50.152;8.182;2023-04-25T04:10:36;20.20;;;8.52;;
31770;SDS011;18343;50.152;8.182;2023-04-25T04:13:34;28.05;;;9.23;;
31770;SDS011;18343;50.152;8.182;2023-04-25T04:16:37;17.23;;;8.45;;
31770;SDS011;18343;50.152;8.182;2023-04-25T04:19:34;32.67;;;9.68;;
31770;SDS011;18343;50.152;8.182;2023-04-25T04:23:22;23.67;;;9.45;;
31770;SDS011;18343;50.152;8.182;2023-04-25T04:30:05;18.83;;;8.60;;
31770;SDS011;18343;50.152;8.182;2023-04-25T04:32:57;18.83;;;8.45;;
31770;SDS011;18343;50.152;8.182;2023-04-25T04:36:35;24.58;;;8.77;;
31770;SDS011;18343;50.152;8.182;2023-04-25T04:39:42;21.70;;;8.57;;
31770;SDS011;18343;50.152;8.182;2023-04-25T04:42:38;19.70;;;8.45;;
31770;SDS011;18343;50.152;8.182;2023-04-25T04:48:46;24.50;;;8.57;;
31770;SDS011;18343;50.152;8.182;2023-04-25T04:51:46;20.77;;;8.73;;
31770;SDS011;18343;50.152;8.182;2023-04-25T04:54:47;26.80;;;9.10;;
31770;SDS011;18343;50.152;8.182;2023-04-25T04:57:38;25.90;;;10.40;;
31770;SDS011;18343;50.152;8.182;2023-04-25T05:00:28;25.23;;;9.93;;
31770;SDS011;18343;50.152;8.182;2023-04-25T05:03:35;23.20;;;9.57;;
31770;SDS011;18343;50.152;8.182;2023-04-25T05:06:25;21.98;;;9.07;;
31770;SDS011;18343;50.152;8.182;2023-04-25T05:09:31;26.83;;;8.60;;
31770;SDS011;18343;50.152;8.182;2023-04-25T05:12:24;21.55;;;8.40;;
31770;SDS011;18343;50.152;8.182;2023-04-25T05:18:19;24.23;;;9.30;;
31770;SDS011;18343;50.152;8.182;2023-04-25T05:21:21;22.40;;;8.02;;
31770;SDS011;18343;50.152;8.182;2023-04-25T05:24:32;25.02;;;8.20;;
31770;SDS011;18343;50.152;8.182;2023-04-25T05:27:36;25.85;;;8.73;;
31770;SDS011;18343;50.152;8.182;2023-04-25T05:30:37;21.92;;;8.50;;
31770;SDS011;18343;50.152;8.182;2023-04-25T05:34:05;27.23;;;8.55;;
31770;SDS011;18343;50.152;8.182;2023-04-25T05:37:06;24.40;;;8.85;;
31770;SDS011;18343;50.152;8.182;2023-04-25T05:40:29;21.52;;;9.23;;
31770;SDS011;18343;50.152;8.182;2023-04-25T05:43:42;15.68;;;8.25;;
31770;SDS011;18343;50.152;8.182;2023-04-25T05:46:38;24.20;;;8.70;;
31770;SDS011;18343;50.152;8.182;2023-04-25T05:53:16;26.50;;;8.75;;
31770;SDS011;18343;50.152;8.182;2023-04-25T05:56:25;24.88;;;8.32;;
31770;SDS011;18343;50.152;8.182;2023-04-25T05:59:41;25.55;;;8.30;;
31770;SDS011;18343;50.152;8.182;2023-04-25T06:02:41;22.50;;;8.88;;
31770;SDS011;18343;50.152;8.182;2023-04-25T06:08:59;23.20;;;7.90;;
31770;SDS011;18343;50.152;8.182;2023-04-25T06:15:09;14.43;;;7.60;;
31770;SDS011;18343;50.152;8.182;2023-04-25T06:18:00;17.55;;;7.82;;
31770;SDS011;18343;50.152;8.182;2023-04-25T06:25:08;14.15;;;6.80;;
31770;SDS011;18343;50.152;8.182;2023-04-25T06:28:33;16.05;;;7.13;;
31770;SDS011;18343;50.152;8.182;2023-04-25T06:32:35;16.77;;;6.55;;
31770;SDS011;18343;50.152;8.182;2023-04-25T06:35:56;14.10;;;5.57;;
31770;SDS011;18343;50.152;8.182;2023-04-25T07:06:43;17.92;;;6.25;;
31770;SDS011;18343;50.152;8.182;2023-04-25T07:09:50;15.73;;;7.05;;
31770;SDS011;18343;50.152;8.182;2023-04-25T07:20:20;11.48;;;4.82;;
31770;SDS011;18343;50.152;8.182;2023-04-25T07:24:04;11.40;;;4.18;;
31770;SDS011;18343;50.152;8.182;2023-04-25T07:27:26;10.15;;;4.25;;
31770;SDS011;18343;50.152;8.182;2023-04-25T07:31:27;8.15;;;4.20;;
31770;SDS011;18343;50.152;8.182;2023-04-25T07:34:37;14.02;;;4.25;;
31770;SDS011;18343;50.152;8.182;2023-04-25T07:37:46;10.13;;;4.00;;
31770;SDS011;18343;50.152;8.182;2023-04-25T07:40:49;10.30;;;3.78;;
31770;SDS011;18343;50.152;8.182;2023-04-25T07:43:59;10.40;;;3.45;;
31770;SDS011;18343;50.152;8.182;2023-04-25T07:47:27;9.32;;;3.63;;
31770;SDS011;18343;50.152;8.182;2023-04-25T07:50:36;11.13;;;3.60;;
31770;SDS011;18343;50.152;8.182;2023-04-25T07:53:40;12.38;;;4.50;;
31770;SDS011;18343;50.152;8.182;2023-04-25T07:56:56;22.90;;;5.32;;
31770;SDS011;18343;50.152;8.182;2023-04-25T08:10:32;8.63;;;4.63;;
31770;SDS011;18343;50.152;8.182;2023-04-25T08:14:00;9.25;;;4.35;;
31770;SDS011;18343;50.152;8.182;2023-04-25T08:17:01;9.75;;;4.60;;
31770;SDS011;18343;50.152;8.182;2023-04-25T08:20:19;11.60;;;5.30;;
31770;SDS011;18343;50.152;8.182;2023-04-25T08:23:32;8.18;;;5.15;;
31770;SDS011;18343;50.152;8.182;2023-04-25T08:26:29;11.38;;;5.70;;
31770;SDS011;18343;50.152;8.182;2023-04-25T08:32:35;12.13;;;5.32;;
31770;SDS011;18343;50.152;8.182;2023-04-25T08:36:12;16.52;;;5.32;;
31770;SDS011;18343;50.152;8.182;2023-04-25T08:39:32;13.05;;;6.32;;
31770;SDS011;18343;50.152;8.182;2023-04-25T08:42:46;11.25;;;5.80;;
31770;SDS011;18343;50.152;8.182;2023-04-25T08:45:58;13.80;;;5.55;;
31770;SDS011;18343;50.152;8.182;2023-04-25T08:49:09;10.50;;;5.63;;
31770;SDS011;18343;50.152;8.182;2023-04-25T08:52:38;13.15;;;5.80;;
31770;SDS011;18343;50.152;8.182;2023-04-25T08:55:42;15.30;;;6.43;;
31770;SDS011;18343;50.152;8.182;2023-04-25T08:59:07;12.10;;;6.65;;
31770;SDS011;18343;50.152;8.182;2023-04-25T09:02:20;11.57;;;5.22;;
31770;SDS011;18343;50.152;8.182;2023-04-25T09:05:25;12.35;;;5.65;;
31770;SDS011;18343;50.152;8.182;2023-04-25T09:08:40;18.55;;;6.97;;
31770;SDS011;18343;50.152;8.182;2023-04-25T09:11:50;12.35;;;6.05;;
31770;SDS011;18343;50.152;8.182;2023-04-25T09:15:01;12.10;;;6.85;;
31770;SDS011;18343;50.152;8.182;2023-04-25T09:21:34;15.75;;;7.18;;
31770;SDS011;18343;50.152;8.182;2023-04-25T09:24:47;15.45;;;7.25;;
31770;SDS011;18343;50.152;8.182;2023-04-25T09:30:47;14.63;;;6.90;;
31770;SDS011;18343;50.152;8.182;2023-04-25T09:33:44;15.25;;;7.45;;
31770;SDS011;18343;50.152;8.182;2023-04-25T09:36:38;15.98;;;7.85;;
31770;SDS011;18343;50.152;8.182;2023-04-25T09:39:33;14.85;;;6.88;;
31770;SDS011;18343;50.152;8.182;2023-04-25T09:42:31;15.73;;;7.65;;
31770;SDS011;18343;50.152;8.182;2023-04-25T09:45:18;14.60;;;7.65;;
31770;SDS011;18343;50.152;8.182;2023-04-25T09:48:13;14.75;;;7.32;;
31770;SDS011;18343;50.152;8.182;2023-04-25T09:51:07;18.13;;;6.57;;
31770;SDS011;18343;50.152;8.182;2023-04-25T09:56:58;15.15;;;6.75;;
31770;SDS011;18343;50.152;8.182;2023-04-25T09:59:52;16.77;;;6.40;;
31770;SDS011;18343;50.152;8.182;2023-04-25T10:02:54;12.57;;;7.03;;
31770;SDS011;18343;50.152;8.182;2023-04-25T10:06:00;10.23;;;5.90;;
31770;SDS011;18343;50.152;8.182;2023-04-25T10:09:08;10.82;;;5.35;;
31770;SDS011;18343;50.152;8.182;2023-04-25T10:12:00;12.27;;;6.47;;
31770;SDS011;18343;50.152;8.182;2023-04-25T10:18:04;12.43;;;5.95;;
31770;SDS011;18343;50.152;8.182;2023-04-25T10:20:53;12.18;;;5.63;;
31770;SDS011;18343;50.152;8.182;2023-04-25T10:23:46;10.73;;;4.95;;
31770;SDS011;18343;50.152;8.182;2023-04-25T10:26:41;10.00;;;4.90;;
31770;SDS011;18343;50.152;8.182;2023-04-25T10:29:34;6.63;;;4.45;;
31770;SDS011;18343;50.152;8.182;2023-04-25T10:32:50;12.98;;;4.90;;
31770;SDS011;18343;50.152;8.182;2023-04-25T10:36:09;11.77;;;4.28;;
31770;SDS011;18343;50.152;8.182;2023-04-25T10:39:07;12.88;;;5.13;;
31770;SDS011;18343;50.152;8.182;2023-04-25T10:42:21;13.20;;;4.45;;
31770;SDS011;18343;50.152;8.182;2023-04-25T10:45:54;7.70;;;5.07;;
31770;SDS011;18343;50.152;8.182;2023-04-25T10:48:56;17.10;;;5.60;;
31770;SDS011;18343;50.152;8.182;2023-04-25T10:51:58;12.68;;;5.22;;
31770;SDS011;18343;50.152;8.182;2023-04-25T10:55:07;9.57;;;5.03;;
31770;SDS011;18343;50.152;8.182;2023-04-25T10:58:05;10.68;;;4.78;;
31770;SDS011;18343;50.152;8.182;2023-04-25T11:04:00;12.57;;;4.70;;
31770;SDS011;18343;50.152;8.182;2023-04-25T11:06:55;10.35;;;4.53;;
31770;SDS011;18343;50.152;8.182;2023-04-25T11:09:54;11.88;;;4.57;;
31770;SDS011;18343;50.152;8.182;2023-04-25T11:13:17;12.10;;;5.72;;
31770;SDS011;18343;50.152;8.182;2023-04-25T11:16:23;10.63;;;5.13;;
31770;SDS011;18343;50.152;8.182;2023-04-25T11:19:14;13.93;;;4.53;;
31770;SDS011;18343;50.152;8.182;2023-04-25T11:22:22;10.23;;;3.97;;
31770;SDS011;18343;50.152;8.182;2023-04-25T11:25:15;13.90;;;4.57;;
31770;SDS011;18343;50.152;8.182;2023-04-25T11:28:20;9.52;;;4.00;;
31770;SDS011;18343;50.152;8.182;2023-04-25T11:31:07;7.57;;;4.28;;
31770;SDS011;18343;50.152;8.182;2023-04-25T11:34:08;15.05;;;4.68;;
31770;SDS011;18343;50.152;8.182;2023-04-25T11:37:16;10.27;;;4.38;;
31770;SDS011;18343;50.152;8.182;2023-04-25T11:40:30;8.68;;;4.05;;
31770;SDS011;18343;50.152;8.182;2023-04-25T11:43:26;8.65;;;3.40;;
31770;SDS011;18343;50.152;8.182;2023-04-25T11:46:13;10.95;;;4.07;;
31770;SDS011;18343;50.152;8.182;2023-04-25T11:49:00;10.07;;;4.20;;
31770;SDS011;18343;50.152;8.182;2023-04-25T11:52:10;8.48;;;4.68;;
31770;SDS011;18343;50.152;8.182;2023-04-25T11:55:08;11.05;;;4.30;;
31770;SDS011;18343;50.152;8.182;2023-04-25T11:58:05;11.95;;;4.45;;
31770;SDS011;18343;50.152;8.182;2023-04-25T12:01:08;13.03;;;4.80;;
31770;SDS011;18343;50.152;8.182;2023-04-25T12:03:58;12.52;;;3.63;;
31770;SDS011;18343;50.152;8.182;2023-04-25T12:06:56;13.07;;;3.60;;
31770;SDS011;18343;50.152;8.182;2023-04-25T12:09:56;10.68;;;4.03;;
31770;SDS011;18343;50.152;8.182;2023-04-25T12:13:00;11.20;;;4.07;;
31770;SDS011;18343;50.152;8.182;2023-04-25T12:16:28;13.27;;;3.83;;
31770;SDS011;18343;50.152;8.182;2023-04-25T12:19:21;12.70;;;4.07;;
31770;SDS011;18343;50.152;8.182;2023-04-25T12:22:19;10.18;;;3.92;;
31770;SDS011;18343;50.152;8.182;2023-04-25T12:25:49;11.80;;;3.75;;
31770;SDS011;18343;50.152;8.182;2023-04-25T12:28:44;13.63;;;4.00;;
31770;SDS011;18343;50.152;8.182;2023-04-25T12:31:41;9.25;;;4.00;;
31770;SDS011;18343;50.152;8.182;2023-04-25T12:34:37;13.85;;;3.90;;
31770;SDS011;18343;50.152;8.182;2023-04-25T12:37:36;7.68;;;4.28;;
31770;SDS011;18343;50.152;8.182;2023-04-25T12:40:49;16.65;;;5.20;;
31770;SDS011;18343;50.152;8.182;2023-04-25T12:43:45;14.95;;;4.38;;
31770;SDS011;18343;50.152;8.182;2023-04-25T12:46:40;13.18;;;4.20;;
31770;SDS011;18343;50.152;8.182;2023-04-25T12:49:53;9.13;;;3.92;;
31770;SDS011;18343;50.152;8.182;2023-04-25T12:52:41;10.82;;;3.85;;
31770;SDS011;18343;50.152;8.182;2023-04-25T12:55:47;11.40;;;3.85;;
31770;SDS011;18343;50.152;8.182;2023-04-25T13:02:18;16.45;;;5.00;;
31770;SDS011;18343;50.152;8.182;2023-04-25T13:09:17;11.07;;;3.78;;
31770;SDS011;18343;50.152;8.182;2023-04-25T13:15:48;9.38;;;3.85;;
31770;SDS011;18343;50.152;8.182;2023-04-25T13:21:22;14.98;;;4.35;;
31770;SDS011;18343;50.152;8.182;2023-04-25T13:24:29;13.48;;;3.92;;
31770;SDS011;18343;50.152;8.182;2023-04-25T13:27:35;7.72;;;3.47;;
31770;SDS011;18343;50.152;8.182;2023-04-25T13:30:33;10.13;;;3.28;;
31770;SDS011;18343;50.152;8.182;2023-04-25T13:33:28;8.13;;;3.47;;
31770;SDS011;18343;50.152;8.182;2023-04-25T13:36:22;8.52;;;3.50;;
31770;SDS011;18343;50.152;8.182;2023-04-25T13:39:15;6.80;;;3.35;;
31770;SDS011;18343;50.152;8.182;2023-04-25T13:42:05;11.23;;;3.72;;
31770;SDS011;18343;50.152;8.182;2023-04-25T13:45:25;10.52;;;3.40;;
31770;SDS011;18343;50.152;8.182;2023-04-25T13:48:42;13.02;;;3.53;;
31770;SDS011;18343;50.152;8.182;2023-04-25T13:51:41;11.27;;;3.40;;
31770;SDS011;18343;50.152;8.182;2023-04-25T13:55:00;9.05;;;3.13;;
31770;SDS011;18343;50.152;8.182;2023-04-25T13:57:57;6.60;;;3.13;;
31770;SDS011;18343;50.152;8.182;2023-04-25T14:00:54;9.73;;;3.55;;
31770;SDS011;18343;50.152;8.182;2023-04-25T14:04:01;12.70;;;4.03;;
31770;SDS011;18343;50.152;8.182;2023-04-25T14:07:01;11.00;;;3.72;;
31770;SDS011;18343;50.152;8.182;2023-04-25T14:10:10;9.13;;;3.20;;
31770;SDS011;18343;50.152;8.182;2023-04-25T14:13:16;8.70;;;3.20;;
31770;SDS011;18343;50.152;8.182;2023-04-25T14:16:10;8.73;;;3.58;;
31770;SDS011;18343;50.152;8.182;2023-04-25T14:18:57;9.52;;;3.03;;
31770;SDS011;18343;50.152;8.182;2023-04-25T14:21:52;10.80;;;2.90;;
31770;SDS011;18343;50.152;8.182;2023-04-25T14:25:00;12.05;;;3.47;;
31770;SDS011;18343;50.152;8.182;2023-04-25T14:27:51;5.22;;;3.17;;
31770;SDS011;18343;50.152;8.182;2023-04-25T14:30:39;10.95;;;3.05;;
31770;SDS011;18343;50.152;8.182;2023-04-25T14:33:27;12.32;;;3.80;;
31770;SDS011;18343;50.152;8.182;2023-04-25T14:35:59;8.18;;;3.53;;
31770;SDS011;18343;50.152;8.182;2023-04-25T14:38:33;10.50;;;3.50;;
31770;SDS011;18343;50.152;8.182;2023-04-25T14:41:04;13.10;;;3.50;;
31770;SDS011;18343;50.152;8.182;2023-04-25T14:43:32;8.30;;;3.08;;
31770;SDS011;18343;50.152;8.182;2023-04-25T14:46:03;12.98;;;3.80;;
31770;SDS011;18343;50.152;8.182;2023-04-25T14:48:40;14.10;;;4.88;;
31770;SDS011;18343;50.152;8.182;2023-04-25T14:51:16;13.05;;;3.90;;
31770;SDS011;18343;50.152;8.182;2023-04-25T14:53:57;9.15;;;3.42;;
31770;SDS011;18343;50.152;8.182;2023-04-25T14:56:31;13.20;;;4.60;;
31770;SDS011;18343;50.152;8.182;2023-04-25T14:59:11;11.68;;;4.57;;
31770;SDS011;18343;50.152;8.182;2023-04-25T15:02:01;10.45;;;4.07;;
31770;SDS011;18343;50.152;8.182;2023-04-25T15:05:05;11.07;;;3.13;;
31770;SDS011;18343;50.152;8.182;2023-04-25T15:07:44;6.57;;;2.67;;
31770;SDS011;18343;50.152;8.182;2023-04-25T15:11:01;14.90;;;3.03;;
31770;SDS011;18343;50.152;8.182;2023-04-25T15:14:05;9.30;;;2.50;;
31770;SDS011;18343;50.152;8.182;2023-04-25T15:16:57;6.57;;;2.50;;
31770;SDS011;18343;50.152;8.182;2023-04-25T15:19:51;10.82;;;3.63;;
31770;SDS011;18343;50.152;8.182;2023-04-25T15:22:45;9.25;;;2.60;;
31770;SDS011;18343;50.152;8.182;2023-04-25T15:25:33;12.02;;;2.33;;
31770;SDS011;18343;50.152;8.182;2023-04-25T15:32:15;9.15;;;2.42;;
31770;SDS011;18343;50.152;8.182;2023-04-25T15:35:13;7.40;;;2.60;;
31770;SDS011;18343;50.152;8.182;2023-04-25T15:38:09;9.00;;;3.00;;
31770;SDS011;18343;50.152;8.182;2023-04-25T15:44:56;7.25;;;2.60;;
31770;SDS011;18343;50.152;8.182;2023-04-25T15:48:09;15.90;;;3.08;;
31770;SDS011;18343;50.152;8.182;2023-04-25T15:51:20;8.20;;;2.38;;
31770;SDS011;18343;50.152;8.182;2023-04-25T15:54:13;14.85;;;3.15;;
31770;SDS011;18343;50.152;8.182;2023-04-25T15:57:07;11.23;;;2.78;;
31770;SDS011;18343;50.152;8.182;2023-04-25T16:08:57;7.75;;;2.55;;
31770;SDS011;18343;50.152;8.182;2023-04-25T16:11:55;9.30;;;2.80;;
31770;SDS011;18343;50.152;8.182;2023-04-25T16:14:52;9.00;;;2.50;;
31770;SDS011;18343;50.152;8.182;2023-04-25T16:29:29;8.77;;;2.30;;
31770;SDS011;18343;50.152;8.182;2023-04-25T16:32:59;11.25;;;3.60;;
31770;SDS011;18343;50.152;8.182;2023-04-25T16:35:50;8.55;;;2.78;;
31770;SDS011;18343;50.152;8.182;2023-04-25T16:39:02;13.02;;;3.00;;
31770;SDS011;18343;50.152;8.182;2023-04-25T17:32:04;8.73;;;2.67;;
31770;SDS011;18343;50.152;8.182;2023-04-25T17:41:34;4.55;;;2.15;;
31770;SDS011;18343;50.152;8.182;2023-04-25T17:44:21;8.50;;;2.03;;
31770;SDS011;18343;50.152;8.182;2023-04-25T17:47:23;7.82;;;2.22;;
31770;SDS011;18343;50.152;8.182;2023-04-25T18:51:53;9.27;;;4.32;;
31770;SDS011;18343;50.152;8.182;2023-04-25T18:54:56;8.88;;;4.53;;
31770;SDS011;18343;50.152;8.182;2023-04-25T19:26:57;5.35;;;2.63;;
31770;SDS011;18343;50.152;8.182;2023-04-25T19:30:00;7.05;;;2.85;;
31770;SDS011;18343;50.152;8.182;2023-04-25T19:32:52;8.73;;;2.85;;
31770;SDS011;18343;50.152;8.182;2023-04-25T19:35:41;6.15;;;3.10;;
31770;SDS011;18343;50.152;8.182;2023-04-25T19:38:39;8.63;;;2.40;;
31770;SDS011;18343;50.152;8.182;2023-04-25T19:41:35;5.80;;;2.33;;
31770;SDS011;18343;50.152;8.182;2023-04-25T19:44:49;8.95;;;2.70;;
31770;SDS011;18343;50.152;8.182;2023-04-25T19:52:10;3.97;;;2.28;;
31770;SDS011;18343;50.152;8.182;2023-04-25T19:55:01;6.15;;;2.55;;
31770;SDS011;18343;50.152;8.182;2023-04-25T19:58:00;11.80;;;2.67;;
31770;SDS011;18343;50.152;8.182;2023-04-25T20:04:44;6.97;;;2.70;;
31770;SDS011;18343;50.152;8.182;2023-04-25T20:07:59;6.53;;;2.30;;
31770;SDS011;18343;50.152;8.182;2023-04-25T20:11:16;6.40;;;2.60;;
31770;SDS011;18343;50.152;8.182;2023-04-25T20:14:24;8.18;;;2.60;;
31770;SDS011;18343;50.152;8.182;2023-04-25T20:17:22;10.25;;;3.13;;
31770;SDS011;18343;50.152;8.182;2023-04-25T20:23:21;6.03;;;3.03;;
31770;SDS011;18343;50.152;8.182;2023-04-25T20:30:13;6.97;;;3.20;;
31770;SDS011;18343;50.152;8.182;2023-04-25T21:22:10;11.27;;;3.90;;
31770;SDS011;18343;50.152;8.182;2023-04-25T21:36:32;17.45;;;5.13;;
31770;SDS011;18343;50.152;8.182;2023-04-25T21:39:19;13.40;;;7.55;;
31770;SDS011;18343;50.152;8.182;2023-04-25T21:42:04;11.32;;;5.43;;
31770;SDS011;18343;50.152;8.182;2023-04-25T21:44:48;12.82;;;5.57;;
31770;SDS011;18343;50.152;8.182;2023-04-25T21:47:33;8.95;;;5.50;;
31770;SDS011;18343;50.152;8.182;2023-04-25T21:50:18;11.18;;;5.93;;
31770;SDS011;18343;50.152;8.182;2023-04-25T21:53:03;12.65;;;5.60;;
31770;SDS011;18343;50.152;8.182;2023-04-25T21:55:50;12.95;;;6.60;;
31770;SDS011;18343;50.152;8.182;2023-04-25T21:58:34;11.60;;;5.90;;
31770;SDS011;18343;50.152;8.182;2023-04-25T22:01:19;16.13;;;6.22;;
31770;SDS011;18343;50.152;8.182;2023-04-25T22:04:04;12.25;;;4.72;;
31770;SDS011;18343;50.152;8.182;2023-04-25T22:06:48;7.50;;;4.68;;
31770;SDS011;18343;50.152;8.182;2023-04-25T22:09:33;13.27;;;4.68;;
31770;SDS011;18343;50.152;8.182;2023-04-25T22:12:19;10.57;;;5.35;;
31770;SDS011;18343;50.152;8.182;2023-04-25T22:15:04;6.95;;;3.60;;
31770;SDS011;18343;50.152;8.182;2023-04-25T22:17:50;10.43;;;3.95;;
31770;SDS011;18343;50.152;8.182;2023-04-25T22:20:36;9.35;;;3.85;;
31770;SDS011;18343;50.152;8.182;2023-04-25T22:23:21;10.57;;;4.55;;
31770;SDS011;18343;50.152;8.182;2023-04-25T22:26:05;8.95;;;4.93;;
31770;SDS011;18343;50.152;8.182;2023-04-25T22:28:51;12.00;;;5.00;;
31770;SDS011;18343;50.152;8.182;2023-04-25T22:31:36;8.40;;;4.75;;
31770;SDS011;18343;50.152;8.182;2023-04-25T22:34:21;11.13;;;4.70;;
31770;SDS011;18343;50.152;8.182;2023-04-25T22:37:06;10.45;;;4.82;;
31770;SDS011;18343;50.152;8.182;2023-04-25T22:39:50;11.65;;;4.78;;
31770;SDS011;18343;50.152;8.182;2023-04-25T22:42:36;11.43;;;4.95;;
31770;SDS011;18343;50.152;8.182;2023-04-25T22:45:22;11.07;;;4.15;;
31770;SDS011;18343;50.152;8.182;2023-04-25T22:48:07;14.32;;;4.78;;
31770;SDS011;18343;50.152;8.182;2023-04-25T22:51:00;11.93;;;6.05;;
31770;SDS011;18343;50.152;8.182;2023-04-25T22:53:45;19.02;;;6.10;;
31770;SDS011;18343;50.152;8.182;2023-04-25T22:56:29;13.70;;;5.03;;
31770;SDS011;18343;50.152;8.182;2023-04-25T22:59:14;7.32;;;4.30;;
31770;SDS011;18343;50.152;8.182;2023-04-25T23:02:00;7.85;;;4.32;;
31770;SDS011;18343;50.152;8.182;2023-04-25T23:04:45;10.25;;;4.22;;
31770;SDS011;18343;50.152;8.182;2023-04-25T23:07:30;13.45;;;5.10;;
31770;SDS011;18343;50.152;8.182;2023-04-25T23:10:14;13.32;;;4.80;;
31770;SDS011;18343;50.152;8.182;2023-04-25T23:12:59;8.70;;;4.70;;
31770;SDS011;18343;50.152;8.182;2023-04-25T23:15:44;11.20;;;5.15;;
31770;SDS011;18343;50.152;8.182;2023-04-25T23:18:31;11.45;;;5.65;;
31770;SDS011;18343;50.152;8.182;2023-04-25T23:21:15;10.55;;;5.82;;
31770;SDS011;18343;50.152;8.182;2023-04-25T23:24:00;15.30;;;5.82;;
31770;SDS011;18343;50.152;8.182;2023-04-25T23:26:45;13.80;;;5.70;;
31770;SDS011;18343;50.152;8.182;2023-04-25T23:29:30;9.70;;;5.28;;
31770;SDS011;18343;50.152;8.182;2023-04-25T23:32:14;13.98;;;4.60;;